Bruce Mines, Canada
Current Conditions -  °F | °C
As of 11:15 AM on Tuesday 21 Oct 2014 (Local Time) from KDRM Reporting Station
Clear Clear  
Wind Chill: 36°   Ceiling: Unl
Heat Index: 41°   Visibility: 10mi
Dew Point: 30°   Wind: 7mph
Humidity: 66%   Direction: 360°N
Pressure: 30.18"   Gusts: NA
Location:  46.3°N, 83.79°W
Report Text: KDRM 211515Z AUTO 36006KT 10SM CLR 05/M01 A3018 RMK AO2 T00481011
Loading
Personal Weather Stations






























Interactive Weather Map
Tropical Storm Tracking
New forecast layout! Learn more

10-Day Weather Forecast

Advertisements
Track Severe Weather on mobile